Time;durP1;ratioP1;P1;durP2;ratioP2;P2;SDS_P1;SDS_P2;PMS_P1;PMS_P2;Temp;Humidity;BMP_temperature;BMP_pressure;BME280_temperature;BME280_humidity;BME280_pressure;Samples;Min_cycle;Max_cycle;Signal;HPM_P1;HPM_P2
2022/04/12 00:01:42;;;;;;;10.40;8.00;;;6.80;99.90;;;;;;5071704;28;20056;-81
2022/04/12 00:04:08;;;;;;;13.43;8.82;;;6.70;99.90;;;;;;5054891;28;20053;-81
2022/04/12 00:06:33;;;;;;;12.27;8.25;;;6.70;99.90;;;;;;5071694;28;20127;-81
2022/04/12 00:08:59;;;;;;;12.75;7.90;;;6.70;99.90;;;;;;5022767;28;20410;-82
2022/04/12 00:11:25;;;;;;;11.43;8.50;;;6.60;99.90;;;;;;5055217;28;20048;-81
2022/04/12 00:13:51;;;;;;;12.65;9.35;;;6.60;99.90;;;;;;5055320;28;20076;-81
2022/04/12 00:16:17;;;;;;;12.80;8.27;;;6.60;99.90;;;;;;5054758;28;20069;-82
2022/04/12 00:21:27;;;;;;;12.57;8.52;;;6.60;99.90;;;;;;5043754;28;20135;-81
2022/04/12 00:23:52;;;;;;;12.95;9.07;;;6.60;99.90;;;;;;5056831;28;20151;-82
2022/04/12 00:26:19;;;;;;;12.90;8.32;;;6.60;99.90;;;;;;5074654;28;20396;-80
2022/04/12 00:28:45;;;;;;;12.80;8.60;;;6.60;99.90;;;;;;5072337;28;20115;-82
2022/04/12 00:31:10;;;;;;;14.55;9.77;;;6.90;99.90;;;;;;5090215;28;20080;-81
2022/04/12 00:33:36;;;;;;;14.48;8.75;;;6.30;99.90;;;;;;5056884;28;20049;-82
2022/04/12 00:36:04;;;;;;;10.95;8.90;;;6.40;99.90;;;;;;5071795;28;20135;-82
2022/04/12 00:38:33;;;;;;;15.18;9.52;;;6.40;99.90;;;;;;5071473;28;20080;-82
2022/04/12 00:40:59;;;;;;;12.13;9.25;;;6.30;99.90;;;;;;5055787;28;20067;-82
2022/04/12 00:43:27;;;;;;;13.55;10.15;;;6.40;99.90;;;;;;5054221;28;20495;-83
2022/04/12 00:45:52;;;;;;;14.40;10.43;;;6.30;99.90;;;;;;5055070;28;20056;-81
2022/04/12 00:48:19;;;;;;;14.07;9.80;;;6.20;99.90;;;;;;5071839;28;20558;-80
2022/04/12 00:50:46;;;;;;;13.75;10.40;;;6.20;99.90;;;;;;5072726;28;20463;-81
2022/04/12 00:53:12;;;;;;;14.98;10.00;;;6.20;99.90;;;;;;5054650;28;20044;-82
2022/04/12 00:55:38;;;;;;;13.40;10.70;;;6.20;99.90;;;;;;5058580;28;20378;-81
2022/04/12 00:58:06;;;;;;;14.85;10.63;;;6.20;99.90;;;;;;5036524;28;20072;-81
2022/04/12 01:00:35;;;;;;;15.00;10.63;;;6.20;99.90;;;;;;5058569;28;20049;-82
2022/04/12 01:03:01;;;;;;;15.55;10.95;;;6.20;99.90;;;;;;5062070;28;20052;-82
2022/04/12 01:05:27;;;;;;;14.25;11.07;;;6.20;99.90;;;;;;5051803;28;20048;-81
2022/04/12 01:07:53;;;;;;;17.85;12.02;;;6.20;99.90;;;;;;5051822;28;20041;-82
2022/04/12 01:10:19;;;;;;;16.65;11.75;;;6.20;99.90;;;;;;5035220;28;20053;-82
2022/04/12 01:12:46;;;;;;;15.48;10.85;;;6.10;99.90;;;;;;5051140;28;20071;-82
2022/04/12 01:15:13;;;;;;;17.45;10.55;;;6.20;99.90;;;;;;5051757;28;20155;-82
2022/04/12 01:17:39;;;;;;;16.20;11.32;;;6.40;99.90;;;;;;5051336;28;20544;-81
2022/04/12 01:20:06;;;;;;;14.88;10.70;;;6.10;99.90;;;;;;5017729;28;20167;-81
2022/04/12 01:22:32;;;;;;;14.63;11.60;;;6.00;99.90;;;;;;5050784;28;20056;-81
2022/04/12 01:24:57;;;;;;;17.92;11.65;;;5.90;99.90;;;;;;5035039;28;20053;-82
2022/04/12 01:27:23;;;;;;;13.63;10.95;;;6.00;99.90;;;;;;5067945;28;20132;-82
2022/04/12 01:29:49;;;;;;;16.45;12.25;;;5.80;99.90;;;;;;5034282;28;20064;-82
2022/04/12 01:32:15;;;;;;;16.75;12.73;;;6.20;99.90;;;;;;5051308;28;20424;-81
2022/04/12 01:34:41;;;;;;;17.73;11.50;;;6.40;99.90;;;;;;5051815;28;20044;-80
2022/04/12 01:37:07;;;;;;;16.20;11.55;;;5.70;99.90;;;;;;5052201;28;20045;-80
2022/04/12 01:39:33;;;;;;;15.57;12.27;;;5.70;99.90;;;;;;5050555;28;20382;-81
2022/04/12 01:42:00;;;;;;;18.63;12.93;;;5.70;99.90;;;;;;5034644;28;20056;-81
2022/04/12 01:44:27;;;;;;;18.27;12.48;;;5.90;99.90;;;;;;5033805;28;20048;-81
2022/04/12 01:46:53;;;;;;;18.10;12.20;;;5.70;99.90;;;;;;5051643;28;20044;-82
2022/04/12 01:49:19;;;;;;;17.48;12.30;;;5.70;99.90;;;;;;5050206;28;20412;-82
2022/04/12 01:51:44;;;;;;;16.23;12.27;;;6.20;99.90;;;;;;5049866;28;20087;-81
2022/04/12 01:54:10;;;;;;;17.35;12.35;;;5.70;99.90;;;;;;5049887;28;20489;-82
2022/04/12 01:56:36;;;;;;;16.33;12.25;;;6.00;99.90;;;;;;5050182;28;20064;-81
2022/04/12 01:59:02;;;;;;;19.30;12.20;;;5.60;99.90;;;;;;5050209;28;20080;-82
2022/04/12 02:01:28;;;;;;;17.83;12.25;;;5.60;99.90;;;;;;5033699;28;20095;-81
2022/04/12 02:03:54;;;;;;;20.65;12.32;;;5.60;99.90;;;;;;5017301;28;20049;-81
2022/04/12 02:06:20;;;;;;;19.35;13.65;;;5.60;99.90;;;;;;5051741;28;20044;-81
2022/04/12 02:08:46;;;;;;;19.90;13.13;;;5.60;99.90;;;;;;5049608;28;20378;-82
2022/04/12 02:11:11;;;;;;;18.08;12.68;;;6.00;99.90;;;;;;5033933;28;20048;-81
2022/04/12 02:13:37;;;;;;;17.67;13.43;;;6.60;99.90;;;;;;5049505;28;20049;-82
2022/04/12 02:16:03;;;;;;;16.17;12.23;;;5.50;99.90;;;;;;5033541;28;20049;-82
2022/04/12 02:18:29;;;;;;;15.70;12.85;;;5.50;99.90;;;;;;5049862;28;20072;-82
2022/04/12 02:20:55;;;;;;;17.13;12.95;;;5.50;99.90;;;;;;5050873;28;20092;-82
2022/04/12 02:23:21;;;;;;;18.58;13.63;;;5.40;99.90;;;;;;5051336;28;20084;-82
2022/04/12 02:25:47;;;;;;;17.52;12.90;;;5.30;99.90;;;;;;5049467;28;20106;-81
2022/04/12 02:28:14;;;;;;;16.38;13.65;;;5.30;99.90;;;;;;5017352;28;20420;-81
2022/04/12 02:30:40;;;;;;;16.65;13.23;;;5.30;99.90;;;;;;5066170;28;20057;-81
2022/04/12 02:33:06;;;;;;;19.42;13.05;;;5.30;99.90;;;;;;5050115;28;20051;-82
2022/04/12 02:35:32;;;;;;;18.65;13.73;;;5.30;99.90;;;;;;5050363;28;20053;-82
2022/04/12 02:37:58;;;;;;;18.10;13.48;;;5.20;99.90;;;;;;5050236;28;20045;-82
2022/04/12 02:40:24;;;;;;;19.33;13.73;;;5.20;99.90;;;;;;5049674;28;20049;-82
2022/04/12 02:42:50;;;;;;;16.70;13.73;;;5.20;99.90;;;;;;5049326;28;20374;-82
2022/04/12 02:45:15;;;;;;;18.45;13.35;;;5.10;99.90;;;;;;5050194;28;20041;-82
2022/04/12 02:47:41;;;;;;;16.63;13.25;;;5.10;99.90;;;;;;5049679;28;20056;-81
2022/04/12 02:50:07;;;;;;;17.92;12.82;;;5.10;99.90;;;;;;5033517;28;20049;-80
2022/04/12 02:52:33;;;;;;;18.38;13.52;;;5.10;99.90;;;;;;5049813;28;20057;-81
2022/04/12 02:54:59;;;;;;;17.65;13.48;;;5.10;99.90;;;;;;5050856;28;20114;-81
2022/04/12 02:57:25;;;;;;;17.92;13.82;;;5.40;99.90;;;;;;5054700;28;20045;-81
2022/04/12 02:59:50;;;;;;;18.73;13.98;;;5.10;99.90;;;;;;5064109;28;20041;-81
2022/04/12 03:02:16;;;;;;;19.40;13.77;;;5.10;99.90;;;;;;5078134;28;20049;-81
2022/04/12 03:04:42;;;;;;;19.58;14.00;;;5.00;99.90;;;;;;5081099;28;20455;-82
2022/04/12 03:07:08;;;;;;;20.00;13.77;;;5.10;99.90;;;;;;5042020;28;20052;-81
2022/04/12 03:09:35;;;;;;;20.00;14.02;;;5.00;99.90;;;;;;5021041;28;20048;-81
2022/04/12 03:12:00;;;;;;;20.83;14.50;;;4.80;99.90;;;;;;5069839;28;20088;-81
2022/04/12 03:14:26;;;;;;;20.05;13.55;;;4.90;99.90;;;;;;5069707;28;20520;-82
2022/04/12 03:16:52;;;;;;;19.48;14.18;;;4.80;99.90;;;;;;5069553;28;20052;-82
2022/04/12 03:19:17;;;;;;;18.58;14.05;;;4.80;99.90;;;;;;5071604;28;20132;-82
2022/04/12 03:21:50;;;;;;;22.05;14.27;;;4.80;99.90;;;;;;5081302;28;20083;-82
2022/04/12 03:24:16;;;;;;;19.40;14.13;;;4.80;99.90;;;;;;5077615;28;20086;-82
2022/04/12 03:26:41;;;;;;;19.85;14.52;;;4.70;99.90;;;;;;5071903;28;20068;-83
2022/04/12 03:29:07;;;;;;;21.23;14.57;;;4.70;99.90;;;;;;5044123;28;20048;-81
2022/04/12 03:31:33;;;;;;;18.85;13.73;;;4.70;99.90;;;;;;5058671;28;20059;-82
2022/04/12 03:33:59;;;;;;;21.05;14.55;;;4.70;99.90;;;;;;5056943;28;20378;-81
2022/04/12 03:36:25;;;;;;;19.80;14.75;;;4.70;99.90;;;;;;5041944;28;20508;-81
2022/04/12 03:38:52;;;;;;;22.52;14.77;;;4.90;99.90;;;;;;5073776;28;20081;-81
2022/04/12 03:41:21;;;;;;;20.70;14.38;;;4.60;99.90;;;;;;5073094;28;20125;-82
2022/04/12 03:43:47;;;;;;;18.98;13.85;;;5.00;99.90;;;;;;5073280;28;20055;-83
2022/04/12 03:46:12;;;;;;;23.00;15.10;;;4.70;99.90;;;;;;5072511;28;20048;-82
2022/04/12 03:48:38;;;;;;;19.58;14.43;;;4.60;99.90;;;;;;5072676;28;20174;-81
2022/04/12 03:51:04;;;;;;;21.90;14.85;;;4.60;99.90;;;;;;5055245;28;20134;-81
2022/04/12 03:53:31;;;;;;;19.77;14.80;;;4.60;99.90;;;;;;5056057;28;20048;-82
2022/04/12 03:55:57;;;;;;;21.23;15.20;;;4.60;99.90;;;;;;5073036;28;20055;-83
2022/04/12 03:58:22;;;;;;;18.60;14.50;;;4.60;99.90;;;;;;5039036;28;20057;-83
2022/04/12 04:00:49;;;;;;;21.27;15.93;;;4.70;99.90;;;;;;5055046;28;20044;-82
2022/04/12 04:03:15;;;;;;;22.02;15.68;;;4.70;99.90;;;;;;5055997;28;20082;-82
2022/04/12 04:05:42;;;;;;;19.73;15.80;;;5.60;99.90;;;;;;5072112;28;20123;-80
2022/04/12 04:08:08;;;;;;;20.42;15.90;;;4.70;99.90;;;;;;5071811;28;20189;-82
2022/04/12 04:10:33;;;;;;;18.85;15.35;;;4.60;99.90;;;;;;5071901;28;20140;-82
2022/04/12 04:12:59;;;;;;;23.17;17.08;;;4.70;99.90;;;;;;5071225;28;20048;-82
2022/04/12 04:15:25;;;;;;;22.10;15.20;;;4.70;99.90;;;;;;5038879;28;20060;-82
2022/04/12 04:17:50;;;;;;;22.42;15.18;;;4.70;99.90;;;;;;5071864;28;20423;-82
2022/04/12 04:20:19;;;;;;;21.90;14.77;;;4.80;99.90;;;;;;5054895;28;20082;-82
2022/04/12 04:22:49;;;;;;;19.27;14.93;;;4.80;99.90;;;;;;5071573;28;20518;-81
2022/04/12 04:25:15;;;;;;;19.55;15.00;;;4.80;99.90;;;;;;5073259;28;20087;-81
2022/04/12 04:27:41;;;;;;;19.27;15.13;;;4.80;99.90;;;;;;5071883;28;20084;-82
2022/04/12 04:30:08;;;;;;;18.27;14.45;;;4.90;99.90;;;;;;5021605;28;20040;-82
2022/04/12 04:32:34;;;;;;;19.20;15.52;;;4.90;99.90;;;;;;5038712;28;20431;-81
2022/04/12 04:35:00;;;;;;;19.08;14.38;;;4.90;99.90;;;;;;5054236;28;20052;-82
2022/04/12 04:37:26;;;;;;;20.20;15.30;;;4.90;99.90;;;;;;5038133;28;20060;-82
2022/04/12 04:39:52;;;;;;;21.75;15.07;;;4.80;99.90;;;;;;5053230;28;20048;-83
2022/04/12 04:42:23;;;;;;;21.30;15.13;;;5.90;99.90;;;;;;5038051;28;20539;-82
2022/04/12 04:44:49;;;;;;;19.55;14.70;;;5.00;99.90;;;;;;5054997;28;20082;-81
2022/04/12 04:47:15;;;;;;;20.90;14.95;;;5.00;99.90;;;;;;5054416;28;20097;-83
2022/04/12 04:49:40;;;;;;;19.65;15.35;;;5.00;99.90;;;;;;5054325;28;20052;-81
2022/04/12 04:52:06;;;;;;;18.98;14.98;;;4.90;99.90;;;;;;5071816;28;20053;-82
2022/04/12 04:54:32;;;;;;;21.90;15.35;;;4.90;99.90;;;;;;5054096;28;20052;-82
2022/04/12 04:56:58;;;;;;;21.65;15.77;;;4.90;99.90;;;;;;5053919;28;20082;-82
2022/04/12 04:59:23;;;;;;;25.50;16.38;;;4.90;99.90;;;;;;5070626;28;20128;-82
2022/04/12 05:01:49;;;;;;;21.45;15.35;;;4.90;99.90;;;;;;5053901;28;20072;-82
2022/04/12 05:04:15;;;;;;;20.13;14.70;;;4.20;99.90;;;;;;5053342;28;20048;-82
2022/04/12 05:06:41;;;;;;;21.83;15.82;;;3.80;99.90;;;;;;5037669;28;20044;-81
2022/04/12 05:09:06;;;;;;;21.15;15.63;;;4.90;99.90;;;;;;5069915;28;20171;-81
2022/04/12 05:11:32;;;;;;;22.73;15.93;;;4.90;99.90;;;;;;5070678;28;20090;-83
2022/04/12 05:13:57;;;;;;;21.42;15.85;;;4.90;99.90;;;;;;5053191;28;20396;-82
2022/04/12 05:16:23;;;;;;;22.50;16.25;;;4.90;99.90;;;;;;5070242;28;20482;-82
2022/04/12 05:18:51;;;;;;;20.92;15.27;;;5.50;99.90;;;;;;5036498;28;20060;-80
2022/04/12 05:21:19;;;;;;;19.95;15.52;;;5.30;99.90;;;;;;5069756;28;20139;-81
2022/04/12 05:23:45;;;;;;;20.38;15.32;;;4.90;99.90;;;;;;5070062;28;20045;-82
2022/04/12 05:26:10;;;;;;;19.23;14.93;;;5.00;99.90;;;;;;5036492;28;20070;-82
2022/04/12 05:28:36;;;;;;;20.80;14.93;;;4.90;99.90;;;;;;5053244;28;20045;-82
2022/04/12 05:31:02;;;;;;;21.25;15.35;;;4.90;99.90;;;;;;5036009;28;20088;-81
2022/04/12 05:33:28;;;;;;;20.63;15.57;;;5.00;99.90;;;;;;5069726;28;20044;-81
2022/04/12 05:35:53;;;;;;;20.00;15.85;;;5.70;99.90;;;;;;5069714;28;20400;-82
2022/04/12 05:38:19;;;;;;;23.02;15.52;;;5.20;99.90;;;;;;5053686;28;20090;-82
2022/04/12 05:40:45;;;;;;;20.25;14.70;;;5.40;99.90;;;;;;5073456;28;20057;-82
2022/04/12 05:43:11;;;;;;;21.38;14.80;;;6.70;99.90;;;;;;5081092;28;20114;-82
2022/04/12 05:45:36;;;;;;;21.63;14.80;;;5.80;99.90;;;;;;5077399;28;20044;-81
2022/04/12 05:48:02;;;;;;;21.80;14.60;;;6.90;99.90;;;;;;5053211;28;20456;-81
2022/04/12 05:50:28;;;;;;;21.58;13.63;;;6.70;99.90;;;;;;5053777;28;20044;-82
2022/04/12 05:52:54;;;;;;;17.35;12.35;;;7.40;99.90;;;;;;5052690;28;20097;-82
2022/04/12 05:55:22;;;;;;;19.70;12.25;;;8.30;99.90;;;;;;5069545;28;20046;-82
2022/04/12 05:57:49;;;;;;;13.57;11.23;;;9.00;99.90;;;;;;5053248;28;20044;-81
2022/04/12 06:00:15;;;;;;;19.13;12.82;;;9.50;99.90;;;;;;5069463;28;20052;-82
2022/04/12 06:02:40;;;;;;;16.98;12.05;;;8.90;99.90;;;;;;5036109;28;20587;-81
2022/04/12 06:05:06;;;;;;;14.73;11.85;;;8.50;99.90;;;;;;5069333;28;20079;-82
2022/04/12 06:07:32;;;;;;;16.55;12.80;;;8.10;99.90;;;;;;5069611;28;20047;-82
2022/04/12 06:10:01;;;;;;;16.17;12.68;;;8.10;99.90;;;;;;5069378;28;20060;-82
2022/04/12 06:12:28;;;;;;;16.73;12.30;;;7.90;99.90;;;;;;5052926;28;20066;-82
2022/04/12 06:14:54;;;;;;;20.70;13.25;;;7.80;99.90;;;;;;5070916;28;20056;-82
2022/04/12 06:17:20;;;;;;;16.48;12.82;;;7.70;99.90;;;;;;5053959;28;20097;-82
2022/04/12 06:19:46;;;;;;;20.17;13.80;;;7.70;99.90;;;;;;5053122;28;20056;-81
2022/04/12 06:22:12;;;;;;;19.05;12.57;;;7.80;99.90;;;;;;5045880;28;20072;-82
2022/04/12 06:24:38;;;;;;;20.05;13.50;;;8.30;99.90;;;;;;5061306;28;20119;-82
2022/04/12 06:27:05;;;;;;;18.42;13.00;;;7.80;99.90;;;;;;5077945;28;20063;-81
2022/04/12 06:29:30;;;;;;;18.27;13.13;;;7.70;99.90;;;;;;5076406;28;20117;-81
2022/04/12 06:31:58;;;;;;;18.25;13.80;;;7.80;99.90;;;;;;5058346;28;20052;-81
2022/04/12 06:34:24;;;;;;;17.73;13.45;;;8.00;99.90;;;;;;5088119;28;20060;-82
2022/04/12 06:36:49;;;;;;;16.20;11.85;;;8.10;99.90;;;;;;5077250;28;20198;-83
2022/04/12 06:39:15;;;;;;;15.60;12.07;;;8.30;99.90;;;;;;5070928;28;20041;-82
2022/04/12 06:41:41;;;;;;;15.18;11.45;;;8.50;99.90;;;;;;5042032;28;20053;-82
2022/04/12 06:44:06;;;;;;;16.90;11.98;;;8.70;99.90;;;;;;5070387;28;20131;-82
2022/04/12 06:46:32;;;;;;;16.58;11.40;;;8.80;99.90;;;;;;5070000;28;20041;-81
2022/04/12 06:48:59;;;;;;;16.88;11.55;;;8.80;99.90;;;;;;5055165;28;20048;-81
2022/04/12 06:51:25;;;;;;;15.00;11.65;;;8.70;99.90;;;;;;5073314;28;20116;-81
2022/04/12 06:53:50;;;;;;;16.05;12.02;;;8.70;99.90;;;;;;5039473;28;20135;-83
2022/04/12 06:56:17;;;;;;;16.20;12.15;;;8.70;99.90;;;;;;5073984;28;20098;-80
2022/04/12 06:58:43;;;;;;;16.13;11.63;;;8.70;99.90;;;;;;5055629;28;20040;-82
2022/04/12 07:01:09;;;;;;;16.45;13.05;;;8.70;99.90;;;;;;5073115;28;20515;-82
2022/04/12 07:03:35;;;;;;;18.35;12.48;;;8.70;99.90;;;;;;5028320;28;20051;-82
2022/04/12 07:06:01;;;;;;;17.75;12.98;;;8.80;99.90;;;;;;5068648;28;20049;-79
2022/04/12 07:08:26;;;;;;;15.45;12.52;;;8.80;99.90;;;;;;5032438;28;20353;-80
2022/04/12 07:10:52;;;;;;;16.05;11.93;;;8.80;99.90;;;;;;5048934;28;20420;-80
2022/04/12 07:13:19;;;;;;;15.27;11.63;;;8.80;99.90;;;;;;5060549;28;20052;-78
2022/04/12 07:15:46;;;;;;;17.17;13.05;;;8.90;99.90;;;;;;5069290;28;20071;-78
2022/04/12 07:18:12;;;;;;;16.50;11.98;;;9.00;99.90;;;;;;5077031;28;20070;-79
2022/04/12 07:20:38;;;;;;;16.52;12.13;;;9.10;99.90;;;;;;5054687;28;20127;-79
2022/04/12 07:23:03;;;;;;;14.20;11.85;;;9.30;99.90;;;;;;5073333;28;20127;-80
2022/04/12 07:25:29;;;;;;;16.45;12.15;;;9.60;99.90;;;;;;5023069;28;20474;-79
2022/04/12 07:27:55;;;;;;;16.35;12.40;;;10.10;99.90;;;;;;5056557;28;20118;-79
2022/04/12 07:30:20;;;;;;;16.60;12.13;;;11.00;99.90;;;;;;5073660;28;20054;-79
2022/04/12 07:32:46;;;;;;;14.30;12.10;;;11.50;99.90;;;;;;5073288;28;20101;-80
2022/04/12 07:35:12;;;;;;;14.00;11.35;;;12.20;99.90;;;;;;5059072;28;20041;-82
2022/04/12 07:37:41;;;;;;;15.52;11.02;;;12.90;99.90;;;;;;5065348;28;20040;-80
2022/04/12 07:40:07;;;;;;;15.10;11.57;;;13.40;99.90;;;;;;5065769;28;20048;-80
2022/04/12 07:42:33;;;;;;;12.68;10.25;;;14.20;99.90;;;;;;5083031;28;20056;-80
2022/04/12 07:44:58;;;;;;;13.85;11.73;;;14.70;99.90;;;;;;5079864;28;20032;-81
2022/04/12 07:47:24;;;;;;;13.63;11.40;;;14.30;99.90;;;;;;5077052;28;20067;-79
2022/04/12 07:49:50;;;;;;;13.00;10.45;;;14.80;99.90;;;;;;5073847;28;20040;-80
2022/04/12 07:52:16;;;;;;;14.18;10.73;;;15.30;99.90;;;;;;5072894;28;20074;-79
2022/04/12 07:54:41;;;;;;;12.70;10.80;;;15.90;99.90;;;;;;5073467;28;20136;-79
2022/04/12 07:57:07;;;;;;;12.98;10.20;;;16.00;99.90;;;;;;5070735;28;20048;-80
2022/04/12 07:59:33;;;;;;;14.95;10.70;;;15.90;99.90;;;;;;5070437;28;20040;-80
2022/04/12 08:01:58;;;;;;;12.55;10.32;;;15.90;99.90;;;;;;5074438;28;20045;-79
2022/04/12 08:04:24;;;;;;;12.57;10.23;;;15.70;99.90;;;;;;5081539;28;20040;-79
2022/04/12 08:06:50;;;;;;;12.00;10.60;;;15.70;99.90;;;;;;5088610;28;20052;-80
2022/04/12 08:09:15;;;;;;;12.07;9.65;;;15.90;99.90;;;;;;5075279;28;20083;-80
2022/04/12 08:11:41;;;;;;;12.23;10.02;;;16.10;99.90;;;;;;5085307;28;20056;-80
2022/04/12 08:14:07;;;;;;;14.13;11.15;;;16.20;99.90;;;;;;5072247;28;20473;-80
2022/04/12 08:16:35;;;;;;;11.85;10.10;;;16.30;99.90;;;;;;5053203;28;20052;-80
2022/04/12 08:19:01;;;;;;;11.65;10.10;;;16.30;99.90;;;;;;5052749;28;20052;-79
2022/04/12 08:21:31;;;;;;;12.40;9.80;;;16.20;99.90;;;;;;5052971;28;20057;-80
2022/04/12 08:23:57;;;;;;;13.38;10.93;;;17.30;99.90;;;;;;5034469;28;20075;-80
2022/04/12 08:26:24;;;;;;;11.48;10.00;;;17.10;99.90;;;;;;5051259;28;20045;-79
2022/04/12 08:28:50;;;;;;;12.38;9.70;;;17.10;99.00;;;;;;5053201;28;20084;-79
2022/04/12 08:31:16;;;;;;;11.25;10.05;;;16.90;99.30;;;;;;5051192;28;20080;-81
2022/04/12 08:33:41;;;;;;;12.02;10.32;;;16.80;99.70;;;;;;5051410;28;20045;-80
2022/04/12 08:36:07;;;;;;;12.13;10.30;;;16.90;98.80;;;;;;5069552;28;20049;-79
2022/04/12 08:38:33;;;;;;;11.27;9.98;;;16.40;99.90;;;;;;5071433;28;20048;-80
2022/04/12 08:40:58;;;;;;;12.52;9.88;;;16.40;99.90;;;;;;5071612;28;20044;-80
2022/04/12 08:43:25;;;;;;;12.07;10.18;;;16.20;99.90;;;;;;5037091;28;20041;-80
2022/04/12 08:45:50;;;;;;;13.68;10.27;;;16.00;99.90;;;;;;5070866;28;20043;-82
2022/04/12 08:48:16;;;;;;;12.88;9.40;;;16.40;99.90;;;;;;5053716;28;20048;-80
2022/04/12 08:50:42;;;;;;;10.98;9.77;;;16.60;99.90;;;;;;5054151;28;20044;-79
2022/04/12 08:53:09;;;;;;;12.23;10.07;;;17.30;99.90;;;;;;5054014;28;20044;-80
2022/04/12 08:55:36;;;;;;;11.32;8.98;;;17.20;98.70;;;;;;5053564;28;20515;-79
2022/04/12 08:58:01;;;;;;;12.55;10.23;;;17.50;98.20;;;;;;5071275;28;20518;-80
2022/04/12 09:00:27;;;;;;;10.75;9.13;;;17.80;97.90;;;;;;5069884;28;20041;-79
2022/04/12 09:02:57;;;;;;;11.80;9.07;;;17.80;97.20;;;;;;5070824;28;20037;-79
2022/04/12 09:05:23;;;;;;;11.02;9.65;;;17.90;96.90;;;;;;5071329;28;20063;-79
2022/04/12 09:07:49;;;;;;;11.30;9.60;;;17.80;97.00;;;;;;5053980;28;20045;-81
2022/04/12 09:10:14;;;;;;;12.15;9.65;;;17.90;99.00;;;;;;5071349;28;20044;-78
2022/04/12 09:12:40;;;;;;;12.23;10.18;;;18.40;96.40;;;;;;5070107;28;20051;-78
2022/04/12 09:15:15;;;;;;;13.95;9.85;;;18.80;96.50;;;;;;5071535;28;20048;-79
2022/04/12 09:17:44;;;;;;;11.57;9.75;;;19.00;96.60;;;;;;5069617;28;20044;-81
2022/04/12 09:20:14;;;;;;;11.70;9.48;;;19.00;95.20;;;;;;5067718;28;20555;-79
2022/04/12 09:22:40;;;;;;;12.02;9.75;;;18.70;95.20;;;;;;5069589;28;20052;-79
2022/04/12 09:25:09;;;;;;;11.18;9.68;;;18.50;95.90;;;;;;5070640;28;20055;-80
2022/04/12 09:27:35;;;;;;;12.00;9.52;;;17.80;96.20;;;;;;5068938;28;20053;-80
2022/04/12 09:30:03;;;;;;;15.63;9.93;;;17.80;98.10;;;;;;5052021;28;20033;-80
2022/04/12 09:32:30;;;;;;;14.50;10.02;;;18.30;96.40;;;;;;5068483;28;20162;-77
2022/04/12 09:34:58;;;;;;;11.63;9.40;;;18.20;96.70;;;;;;5069595;28;20045;-80
2022/04/12 09:37:30;;;;;;;13.85;9.68;;;18.60;96.90;;;;;;5069710;28;20052;-82
2022/04/12 09:39:58;;;;;;;11.00;9.63;;;18.70;96.70;;;;;;5053703;28;20476;-79
2022/04/12 09:42:42;;;;;;;11.25;10.15;;;18.50;95.90;;;;;;5065889;28;20055;-79
2022/04/12 09:45:10;;;;;;;12.07;9.70;;;18.40;98.10;;;;;;5070445;28;20048;-78
2022/04/12 09:47:36;;;;;;;13.73;9.80;;;18.80;96.90;;;;;;5069238;28;20128;-78
2022/04/12 09:50:02;;;;;;;11.50;9.90;;;18.50;97.00;;;;;;5070150;28;20123;-78
2022/04/12 09:52:28;;;;;;;13.85;9.55;;;18.30;97.20;;;;;;5070185;28;20040;-77
2022/04/12 09:54:55;;;;;;;11.20;10.05;;;18.30;96.90;;;;;;5070457;28;20040;-79
2022/04/12 09:57:22;;;;;;;11.80;9.40;;;18.20;96.40;;;;;;5069820;28;20135;-79
2022/04/12 09:59:47;;;;;;;13.60;10.05;;;18.40;96.90;;;;;;5065683;28;20044;-80
2022/04/12 10:02:13;;;;;;;11.77;9.85;;;17.90;96.10;;;;;;5035569;28;20052;-79
2022/04/12 10:04:38;;;;;;;11.25;9.65;;;18.40;96.30;;;;;;5051624;28;20058;-77
2022/04/12 10:07:07;;;;;;;10.30;9.15;;;18.30;99.90;;;;;;5070620;28;20048;-79
2022/04/12 10:09:35;;;;;;;12.13;9.80;;;18.70;95.90;;;;;;5082300;28;20052;-78
2022/04/12 10:12:00;;;;;;;13.63;9.93;;;18.90;94.80;;;;;;5070131;28;20040;-78
2022/04/12 10:14:26;;;;;;;11.23;9.15;;;19.30;95.00;;;;;;5054040;28;20087;-79
2022/04/12 10:16:52;;;;;;;10.68;9.30;;;19.70;95.00;;;;;;5036628;28;20084;-80
2022/04/12 10:19:18;;;;;;;16.40;10.88;;;20.40;93.20;;;;;;5069861;28;20075;-79
2022/04/12 10:21:44;;;;;;;13.27;10.02;;;19.80;93.00;;;;;;5052222;28;20045;-79
2022/04/12 10:24:10;;;;;;;11.95;9.73;;;19.80;95.20;;;;;;5069227;28;20041;-79
2022/04/12 10:26:36;;;;;;;12.50;10.30;;;19.70;93.90;;;;;;5020124;28;20454;-80
2022/04/12 10:29:04;;;;;;;12.07;9.80;;;19.30;94.50;;;;;;5068724;28;20040;-79
2022/04/12 10:31:30;;;;;;;13.80;9.75;;;19.20;94.80;;;;;;5051197;28;20040;-80
2022/04/12 10:34:16;;;;;;;13.27;9.90;;;19.10;95.60;;;;;;5069556;28;20107;-79
2022/04/12 10:36:54;;;;;;;13.68;9.75;;;19.00;95.90;;;;;;5071569;28;20048;-79
2022/04/12 10:39:43;;;;;;;13.43;10.88;;;19.20;96.50;;;;;;5057204;28;20139;-79
2022/04/12 10:42:11;;;;;;;13.05;10.00;;;19.40;96.40;;;;;;5063493;28;20095;-80
2022/04/12 10:44:48;;;;;;;14.10;10.13;;;19.50;95.60;;;;;;5072822;28;20044;-81
2022/04/12 10:47:33;;;;;;;11.73;9.82;;;19.80;94.00;;;;;;5056925;28;20048;-79
2022/04/12 10:50:00;;;;;;;12.60;9.20;;;19.80;95.60;;;;;;5056552;28;20059;-80
2022/04/12 10:52:41;;;;;;;10.50;9.15;;;19.70;96.40;;;;;;5056064;28;20040;-80
2022/04/12 10:55:08;;;;;;;12.20;9.40;;;19.80;96.00;;;;;;5072515;28;20044;-79
2022/04/12 10:57:34;;;;;;;10.23;9.10;;;19.70;96.30;;;;;;5070676;28;20044;-82
2022/04/12 11:00:10;;;;;;;10.52;9.18;;;19.60;97.70;;;;;;5022934;28;20119;-80
2022/04/12 11:02:55;;;;;;;11.80;9.88;;;19.70;96.30;;;;;;5069697;28;20080;-79
2022/04/12 11:05:42;;;;;;;11.55;9.80;;;19.20;97.80;;;;;;5055607;28;20048;-78
2022/04/12 11:08:31;;;;;;;10.40;9.35;;;19.20;98.90;;;;;;5071057;28;20078;-82
2022/04/12 11:10:57;;;;;;;13.52;9.50;;;19.40;98.40;;;;;;5053089;28;20049;-80
2022/04/12 11:13:24;;;;;;;10.50;9.40;;;19.10;97.70;;;;;;5073178;28;20048;-79
2022/04/12 11:16:11;;;;;;;10.77;9.20;;;19.10;98.30;;;;;;5054497;28;20438;-78
2022/04/12 11:18:51;;;;;;;12.40;8.38;;;19.10;97.50;;;;;;5071462;28;20352;-80
2022/04/12 11:21:18;;;;;;;11.25;9.32;;;18.70;96.80;;;;;;5068785;28;20048;-79
2022/04/12 11:23:47;;;;;;;10.50;9.07;;;18.60;98.30;;;;;;5071254;28;20085;-80
2022/04/12 11:26:44;;;;;;;12.70;9.00;;;18.60;97.30;;;;;;5071263;28;20085;-79
2022/04/12 11:29:15;;;;;;;11.43;9.07;;;18.60;98.30;;;;;;5070129;28;20037;-80
2022/04/12 11:31:42;;;;;;;13.68;8.98;;;18.40;98.80;;;;;;5051343;28;20040;-79
2022/04/12 11:34:07;;;;;;;12.77;9.30;;;18.50;99.90;;;;;;5055485;28;20040;-78
2022/04/12 11:36:34;;;;;;;11.13;9.27;;;18.60;98.30;;;;;;5072894;28;20521;-80
2022/04/12 11:38:59;;;;;;;12.75;9.65;;;18.70;99.00;;;;;;5072169;28;20047;-78
2022/04/12 11:41:28;;;;;;;12.10;10.07;;;18.60;98.50;;;;;;5054830;28;20044;-79
2022/04/12 11:44:01;;;;;;;15.00;10.00;;;18.60;98.60;;;;;;5071116;28;20040;-80
2022/04/12 11:46:32;;;;;;;12.67;10.00;;;18.70;99.80;;;;;;5073102;28;20051;-79
2022/04/12 11:49:08;;;;;;;12.93;9.55;;;18.90;99.90;;;;;;5055468;28;20537;-78
2022/04/12 11:51:41;;;;;;;13.13;9.63;;;19.00;99.90;;;;;;5071830;28;20098;-80
2022/04/12 11:54:28;;;;;;;14.07;10.13;;;18.90;99.80;;;;;;5039265;28;20045;-80
2022/04/12 11:57:01;;;;;;;12.60;9.90;;;19.00;99.90;;;;;;5071542;28;20480;-80
2022/04/12 11:59:32;;;;;;;14.27;10.27;;;18.90;99.40;;;;;;5039767;28;20133;-80
2022/04/12 12:02:02;;;;;;;16.58;9.88;;;19.00;99.30;;;;;;5038770;28;20044;-80
2022/04/12 12:04:34;;;;;;;13.07;10.30;;;19.20;99.70;;;;;;5039876;28;20044;-81
2022/04/12 12:07:06;;;;;;;13.57;9.70;;;19.10;99.30;;;;;;5072417;28;20041;-80
2022/04/12 12:09:34;;;;;;;12.90;9.82;;;19.10;99.80;;;;;;5073370;28;20086;-79
2022/04/12 12:12:07;;;;;;;13.10;9.32;;;19.10;99.00;;;;;;5071427;28;20913;-80
2022/04/12 12:14:33;;;;;;;12.63;9.95;;;19.40;98.20;;;;;;5055663;28;20049;-79
2022/04/12 12:17:12;;;;;;;11.18;8.75;;;19.50;99.20;;;;;;5038203;28;20123;-79
2022/04/12 12:19:38;;;;;;;13.32;10.18;;;19.50;98.80;;;;;;5071249;28;20056;-80
2022/04/12 12:22:05;;;;;;;16.70;9.85;;;19.50;99.90;;;;;;5072371;28;20059;-78
2022/04/12 12:24:35;;;;;;;12.20;9.23;;;19.50;98.20;;;;;;5071546;28;20079;-79
2022/04/12 12:27:00;;;;;;;17.85;10.38;;;19.50;98.20;;;;;;5077788;28;20112;-79
2022/04/12 12:29:26;;;;;;;14.13;9.50;;;19.30;97.90;;;;;;5070432;28;20568;-78
2022/04/12 12:31:58;;;;;;;14.63;10.93;;;19.40;98.60;;;;;;5070108;28;20040;-78
2022/04/12 12:34:33;;;;;;;13.73;9.65;;;19.40;97.90;;;;;;5069372;28;20382;-78
2022/04/12 12:37:06;;;;;;;11.95;9.30;;;19.70;97.60;;;;;;5075168;28;20129;-78
2022/04/12 12:39:37;;;;;;;13.38;9.68;;;19.80;98.50;;;;;;5052429;28;20056;-79